createdAt,value
2019-01-13T00:01:02.974Z,6.8
2019-01-13T00:02:15.166Z,6.8
2019-01-13T00:03:27.362Z,6.8
2019-01-13T00:05:51.759Z,6.8
2019-01-13T00:07:03.951Z,6.8
2019-01-13T00:08:16.277Z,6.8
2019-01-13T00:09:28.335Z,6.8
2019-01-13T00:11:52.812Z,6.8
2019-01-13T00:13:04.926Z,6.8
2019-01-13T00:14:17.119Z,6.9
2019-01-13T00:15:29.418Z,6.8
2019-01-13T00:16:41.507Z,6.8
2019-01-13T00:17:53.786Z,6.9
2019-01-13T00:19:05.914Z,6.9
2019-01-13T00:20:18.098Z,6.9
2019-01-13T00:21:30.293Z,6.9
2019-01-13T00:23:54.760Z,6.9
2019-01-13T00:25:06.888Z,6.9
2019-01-13T00:26:19.167Z,6.9
2019-01-13T00:27:31.356Z,6.9
2019-01-13T00:28:43.548Z,6.9
2019-01-13T00:29:55.785Z,6.9
2019-01-13T00:31:07.856Z,6.9
2019-01-13T00:32:20.052Z,6.9
2019-01-13T00:33:32.294Z,6.9
2019-01-13T00:35:56.724Z,6.9
2019-01-13T00:37:08.835Z,6.9
2019-01-13T00:38:21.034Z,6.9
2019-01-13T00:39:33.316Z,6.9
2019-01-13T00:40:45.421Z,6.9
2019-01-13T00:41:57.697Z,6.9
2019-01-13T00:43:09.911Z,6.9
2019-01-13T00:44:22.035Z,6.9
2019-01-13T00:45:34.274Z,6.9
2019-01-13T00:46:46.470Z,6.9
2019-01-13T00:47:58.611Z,6.9
2019-01-13T00:49:10.792Z,6.9
2019-01-13T00:50:22.986Z,6.9
2019-01-13T00:51:35.183Z,6.9
2019-01-13T00:52:47.415Z,6.9
2019-01-13T00:53:59.672Z,6.9
2019-01-13T00:55:11.844Z,6.9
2019-01-13T00:56:24.040Z,6.9
2019-01-13T00:57:36.188Z,6.9
2019-01-13T00:58:48.419Z,6.9
2019-01-13T01:00:00.553Z,6.9
2019-01-13T01:01:12.763Z,6.9
2019-01-13T01:02:24.995Z,6.9
2019-01-13T01:03:37.144Z,6.9
2019-01-13T01:04:49.408Z,6.9
2019-01-13T01:06:01.601Z,6.9
2019-01-13T01:07:13.721Z,6.9
2019-01-13T01:08:26.026Z,6.9
2019-01-13T01:09:38.191Z,6.9
2019-01-13T01:10:50.399Z,6.9
2019-01-13T01:12:02.594Z,6.9
2019-01-13T01:13:14.697Z,6.9
2019-01-13T01:14:26.890Z,6.9
2019-01-13T01:15:39.192Z,6.9
2019-01-13T01:16:51.404Z,6.9
2019-01-13T01:18:03.472Z,6.9
2019-01-13T01:19:15.671Z,6.9
2019-01-13T01:20:27.933Z,6.9
2019-01-13T01:21:40.173Z,6.9
2019-01-13T01:24:04.452Z,6.9
2019-01-13T01:25:16.737Z,6.9
2019-01-13T01:26:28.846Z,6.9
2019-01-13T01:27:41.134Z,6.9
2019-01-13T01:28:53.315Z,6.9
2019-01-13T01:30:05.495Z,6.9
2019-01-13T01:32:29.937Z,6.9
2019-01-13T01:33:42.045Z,6.9
2019-01-13T01:34:54.243Z,6.9
2019-01-13T01:36:06.492Z,6.9
2019-01-13T01:37:18.693Z,6.9
2019-01-13T01:38:30.867Z,6.9
2019-01-13T01:39:43.079Z,6.9
2019-01-13T01:40:55.323Z,6.9
2019-01-13T01:42:07.486Z,6.9
2019-01-13T01:43:19.660Z,7
2019-01-13T01:44:31.862Z,6.9
2019-01-13T01:45:43.970Z,6.9
2019-01-13T01:48:08.442Z,6.9
2019-01-13T01:49:20.560Z,7
2019-01-13T01:50:32.848Z,7
2019-01-13T01:51:45.021Z,7
2019-01-13T01:52:57.145Z,7
2019-01-13T01:54:09.453Z,6.9
2019-01-13T01:55:21.617Z,7
2019-01-13T01:56:33.880Z,7
2019-01-13T01:57:45.935Z,7
2019-01-13T02:01:22.670Z,7
2019-01-13T02:02:34.789Z,7
2019-01-13T02:03:47.043Z,7
2019-01-13T02:04:59.296Z,7
2019-01-13T02:06:11.389Z,7
2019-01-13T02:07:23.616Z,7
2019-01-13T02:08:35.682Z,7
2019-01-13T02:09:47.879Z,7
2019-01-13T02:11:00.155Z,7
2019-01-13T02:12:12.280Z,7
2019-01-13T02:13:24.458Z,7
2019-01-13T02:14:36.732Z,7
2019-01-13T02:15:48.933Z,7
2019-01-13T02:17:01.131Z,7
2019-01-13T02:18:13.245Z,7
2019-01-13T02:19:25.445Z,7
2019-01-13T02:20:37.645Z,7
2019-01-13T02:21:49.906Z,7
2019-01-13T02:24:14.226Z,7
2019-01-13T02:25:26.430Z,7
2019-01-13T02:26:38.647Z,7
2019-01-13T02:27:50.896Z,7
2019-01-13T02:29:03.082Z,7
2019-01-13T02:30:15.342Z,7
2019-01-13T02:31:27.421Z,6.9
2019-01-13T02:32:39.617Z,7
2019-01-13T02:33:51.821Z,7
2019-01-13T02:36:16.224Z,7
2019-01-13T02:37:28.373Z,7
2019-01-13T02:38:40.660Z,7
2019-01-13T02:39:52.787Z,7
2019-01-13T02:41:05.089Z,7
2019-01-13T02:42:17.162Z,7
2019-01-13T02:43:29.453Z,7
2019-01-13T02:44:41.574Z,7
2019-01-13T02:45:53.814Z,7
2019-01-13T02:47:05.934Z,7
2019-01-13T02:48:18.124Z,7
2019-01-13T02:49:30.334Z,6.9
2019-01-13T02:50:42.587Z,7
2019-01-13T02:51:54.822Z,6.9
2019-01-13T02:53:06.991Z,6.9
2019-01-13T02:54:19.099Z,7
2019-01-13T02:55:31.432Z,7
2019-01-13T02:56:43.530Z,6.9
2019-01-13T02:57:55.750Z,6.9
2019-01-13T03:00:20.180Z,6.9
2019-01-13T03:01:32.320Z,6.9
2019-01-13T03:02:44.528Z,6.9
2019-01-13T03:03:56.703Z,6.9
2019-01-13T03:06:21.058Z,6.9
2019-01-13T03:07:33.244Z,6.9
2019-01-13T03:08:45.435Z,6.9
2019-01-13T03:09:57.693Z,6.9
2019-01-13T03:12:22.166Z,6.9
2019-01-13T03:13:34.290Z,6.9
2019-01-13T03:14:46.490Z,6.9
2019-01-13T03:15:58.664Z,7
2019-01-13T03:17:10.774Z,6.9
2019-01-13T03:18:22.975Z,6.9
2019-01-13T03:19:35.259Z,6.9
2019-01-13T03:20:47.412Z,6.9
2019-01-13T03:21:59.765Z,7
2019-01-13T03:24:24.031Z,6.9
2019-01-13T03:25:36.147Z,6.9
2019-01-13T03:26:50.492Z,7
2019-01-13T03:28:00.605Z,6.9
2019-01-13T03:29:12.722Z,6.9
2019-01-13T03:30:24.948Z,7
2019-01-13T03:31:37.200Z,7
2019-01-13T03:32:49.392Z,7
2019-01-13T03:34:01.519Z,7
2019-01-13T03:35:13.767Z,7
2019-01-13T03:36:25.955Z,7
2019-01-13T03:37:38.082Z,7
2019-01-13T03:38:50.349Z,7
2019-01-13T03:40:02.695Z,7
2019-01-13T03:41:14.754Z,7
2019-01-13T03:42:26.859Z,7
2019-01-13T03:43:39.050Z,7
2019-01-13T03:44:51.306Z,7
2019-01-13T03:46:03.429Z,7
2019-01-13T03:48:27.817Z,7
2019-01-13T03:49:40.033Z,7
2019-01-13T03:50:52.221Z,7
2019-01-13T03:52:04.397Z,7
2019-01-13T03:53:16.705Z,7
2019-01-13T03:54:28.798Z,7
2019-01-13T03:55:41.012Z,7
2019-01-13T03:56:53.275Z,7
2019-01-13T03:58:05.369Z,7
2019-01-13T04:00:29.876Z,7
2019-01-13T04:01:42.025Z,7
2019-01-13T04:02:54.184Z,7
2019-01-13T04:04:06.331Z,7
2019-01-13T04:05:18.536Z,7
2019-01-13T04:06:30.932Z,7
2019-01-13T04:07:42.920Z,7
2019-01-13T04:08:55.211Z,7
2019-01-13T04:10:07.377Z,7
2019-01-13T04:12:31.764Z,7
2019-01-13T04:13:43.904Z,7
2019-01-13T04:14:56.097Z,7
2019-01-13T04:16:08.271Z,7
2019-01-13T04:17:20.465Z,7
2019-01-13T04:18:32.667Z,7
2019-01-13T04:19:44.923Z,7
2019-01-13T04:20:57.092Z,7
2019-01-13T04:22:09.325Z,7
2019-01-13T04:23:21.508Z,7
2019-01-13T04:24:33.632Z,7
2019-01-13T04:25:45.816Z,7
2019-01-13T04:26:58.089Z,7
2019-01-13T04:28:10.297Z,7
2019-01-13T04:29:22.480Z,7
2019-01-13T04:30:34.674Z,7
2019-01-13T04:31:46.804Z,7
2019-01-13T04:32:58.996Z,7
2019-01-13T04:34:11.183Z,7
2019-01-13T04:35:23.381Z,7
2019-01-13T04:36:35.576Z,7
2019-01-13T04:37:47.835Z,7
2019-01-13T04:39:00.072Z,7
2019-01-13T04:40:12.173Z,7
2019-01-13T04:41:24.434Z,7
2019-01-13T04:42:36.675Z,7
2019-01-13T04:43:48.807Z,7
2019-01-13T04:45:01.008Z,7
2019-01-13T04:46:13.114Z,7
2019-01-13T04:48:37.596Z,7
2019-01-13T04:49:49.771Z,7
2019-01-13T04:51:01.972Z,7
2019-01-13T04:52:14.095Z,7
2019-01-13T04:53:26.388Z,7
2019-01-13T04:54:38.576Z,7
2019-01-13T04:55:50.687Z,7
2019-01-13T04:57:02.870Z,7
2019-01-13T04:58:15.085Z,7
2019-01-13T05:00:39.620Z,7.1
2019-01-13T05:01:51.730Z,7
2019-01-13T05:03:03.830Z,7
2019-01-13T05:04:16.022Z,7
2019-01-13T05:05:28.310Z,7.1
2019-01-13T05:06:40.517Z,7.1
2019-01-13T05:07:52.679Z,7.1
2019-01-13T05:09:04.815Z,7.1
2019-01-13T05:10:17.114Z,7.1
2019-01-13T05:12:41.426Z,7.1
2019-01-13T05:13:53.600Z,7.1
2019-01-13T05:15:05.841Z,7.1
2019-01-13T05:16:18.009Z,7.1
2019-01-13T05:17:30.161Z,7.1
2019-01-13T05:18:42.385Z,7.1
2019-01-13T05:19:54.573Z,7.1
2019-01-13T05:21:06.832Z,7.1
2019-01-13T05:22:18.939Z,7.1
2019-01-13T05:24:43.327Z,7.1
2019-01-13T05:25:55.583Z,7.1
2019-01-13T05:27:07.709Z,7.1
2019-01-13T05:28:19.996Z,7.1
2019-01-13T05:29:32.094Z,7.1
2019-01-13T05:30:44.352Z,7.1
2019-01-13T05:31:56.482Z,7.1
2019-01-13T05:33:08.673Z,7.1
2019-01-13T05:34:20.868Z,7.1
2019-01-13T05:36:45.330Z,7.1
2019-01-13T05:37:57.538Z,7.1
2019-01-13T05:39:09.736Z,7.1
2019-01-13T05:40:21.916Z,7.1
2019-01-13T05:41:34.032Z,7.1
2019-01-13T05:42:46.317Z,7.1
2019-01-13T05:43:58.429Z,7.1
2019-01-13T05:45:10.634Z,7.1
2019-01-13T05:46:22.923Z,7.2
2019-01-13T05:48:47.261Z,7.1
2019-01-13T05:49:59.486Z,7.2
2019-01-13T05:51:11.667Z,7.1
2019-01-13T05:52:23.869Z,7.2
2019-01-13T05:53:35.976Z,7.2
2019-01-13T05:54:48.161Z,7.2
2019-01-13T05:56:00.430Z,7.2
2019-01-13T05:57:12.557Z,7.2
2019-01-13T05:58:24.794Z,7.2
2019-01-13T05:59:36.940Z,7.2
2019-01-13T06:00:49.215Z,7.2
2019-01-13T06:02:01.387Z,7.2
2019-01-13T06:03:13.514Z,7.2
2019-01-13T06:04:25.719Z,7.2
2019-01-13T06:05:37.937Z,7.2
2019-01-13T06:06:50.109Z,7.2
2019-01-13T06:08:02.429Z,7.2
2019-01-13T06:09:14.490Z,7.2
2019-01-13T06:10:26.708Z,7.2
2019-01-13T06:12:51.161Z,7.2
2019-01-13T06:14:03.265Z,7.2
2019-01-13T06:15:15.463Z,7.2
2019-01-13T06:16:27.645Z,7.2
2019-01-13T06:17:39.938Z,7.2
2019-01-13T06:18:52.039Z,7.2
2019-01-13T06:20:04.245Z,7.2
2019-01-13T06:21:16.436Z,7.3
2019-01-13T06:22:28.712Z,7.3
2019-01-13T06:23:40.816Z,7.2
2019-01-13T06:24:55.825Z,7.3
2019-01-13T06:26:05.210Z,7.3
2019-01-13T06:28:29.618Z,7.3
2019-01-13T06:29:41.792Z,7.3
2019-01-13T06:30:55.273Z,7.3
2019-01-13T06:32:06.184Z,7.3
2019-01-13T06:33:18.434Z,7.3
2019-01-13T06:34:30.564Z,7.3
2019-01-13T06:36:55.024Z,7.3
2019-01-13T06:38:07.137Z,7.3
2019-01-13T06:39:19.329Z,7.3
2019-01-13T06:40:31.619Z,7.3
2019-01-13T06:41:43.822Z,7.3
2019-01-13T06:42:55.922Z,7.3
2019-01-13T06:44:08.106Z,7.3
2019-01-13T06:45:20.298Z,7.3
2019-01-13T06:46:32.559Z,7.3
2019-01-13T06:47:44.820Z,7.3
2019-01-13T06:48:56.938Z,7.3
2019-01-13T06:50:09.077Z,7.3
2019-01-13T06:51:21.358Z,7.4
2019-01-13T06:52:33.594Z,7.3
2019-01-13T06:53:45.651Z,7.3
2019-01-13T06:54:57.856Z,7.4
2019-01-13T06:56:10.154Z,7.4
2019-01-13T06:57:22.325Z,7.4
2019-01-13T06:58:34.562Z,7.4
2019-01-13T07:00:58.954Z,7.4
2019-01-13T07:02:11.227Z,7.4
2019-01-13T07:03:23.253Z,7.4
2019-01-13T07:04:35.478Z,7.4
2019-01-13T07:05:47.674Z,7.4
2019-01-13T07:06:59.893Z,7.4
2019-01-13T07:08:12.090Z,7.4
2019-01-13T07:09:24.177Z,7.4
2019-01-13T07:10:36.458Z,7.4
2019-01-13T07:13:00.776Z,7.4
2019-01-13T07:14:12.950Z,7.4
2019-01-13T07:15:25.149Z,7.4
2019-01-13T07:16:37.344Z,7.5
2019-01-13T07:17:49.535Z,7.5
2019-01-13T07:19:03.828Z,7.5
2019-01-13T07:20:13.993Z,7.5
2019-01-13T07:21:26.217Z,7.5
2019-01-13T07:22:38.314Z,7.5
2019-01-13T07:25:02.699Z,7.5
2019-01-13T07:26:14.967Z,7.5
2019-01-13T07:27:27.091Z,7.5
2019-01-13T07:28:39.284Z,7.5
2019-01-13T07:29:51.467Z,7.5
2019-01-13T07:31:03.768Z,7.5
2019-01-13T07:32:15.888Z,7.5
2019-01-13T07:33:28.065Z,7.5
2019-01-13T07:34:41.766Z,7.5
2019-01-13T07:37:04.646Z,7.5
2019-01-13T07:38:16.961Z,7.5
2019-01-13T07:39:29.094Z,7.6
2019-01-13T07:40:41.289Z,7.6
2019-01-13T07:41:53.409Z,7.6
2019-01-13T07:43:05.685Z,7.6
2019-01-13T07:44:17.821Z,7.6
2019-01-13T07:45:30.010Z,7.6
2019-01-13T07:46:42.262Z,7.6
2019-01-13T07:49:06.640Z,7.6
2019-01-13T07:50:18.894Z,7.6
2019-01-13T07:51:30.949Z,7.6
2019-01-13T07:52:43.257Z,7.6
2019-01-13T07:53:55.530Z,7.6
2019-01-13T07:55:07.586Z,7.6
2019-01-13T07:56:19.740Z,7.6
2019-01-13T07:57:31.930Z,7.6
2019-01-13T07:58:44.147Z,7.7
2019-01-13T08:01:08.516Z,7.7
2019-01-13T08:02:20.700Z,7.7
2019-01-13T08:03:32.983Z,7.7
2019-01-13T08:04:45.085Z,7.7
2019-01-13T08:05:57.366Z,7.7
2019-01-13T08:07:09.477Z,7.7
2019-01-13T08:08:21.669Z,7.7
2019-01-13T08:09:33.933Z,7.7
2019-01-13T08:10:46.223Z,7.7
2019-01-13T08:13:10.498Z,7.7
2019-01-13T08:14:22.646Z,7.7
2019-01-13T08:15:35.015Z,7.8
2019-01-13T08:16:47.232Z,7.8
2019-01-13T08:17:59.332Z,7.8
2019-01-13T08:19:11.487Z,7.8
2019-01-13T08:20:23.614Z,7.8
2019-01-13T08:21:35.826Z,7.8
2019-01-13T08:22:48.001Z,7.8
2019-01-13T08:25:12.537Z,7.8
2019-01-13T08:26:24.571Z,7.8
2019-01-13T08:27:37.112Z,7.8
2019-01-13T08:28:49.180Z,7.8
2019-01-13T08:30:01.215Z,7.8
2019-01-13T08:31:13.358Z,7.8
2019-01-13T08:32:25.715Z,7.9
2019-01-13T08:33:37.744Z,7.9
2019-01-13T08:34:49.930Z,7.9
2019-01-13T08:36:02.130Z,7.9
2019-01-13T08:37:14.322Z,7.9
2019-01-13T08:38:26.519Z,7.9
2019-01-13T08:39:38.816Z,7.9
2019-01-13T08:40:50.978Z,7.9
2019-01-13T08:42:03.102Z,7.9
2019-01-13T08:43:15.369Z,7.9
2019-01-13T08:44:27.603Z,7.9
2019-01-13T08:45:39.687Z,7.9
2019-01-13T08:46:51.869Z,7.9
2019-01-13T08:49:16.422Z,7.9
2019-01-13T08:50:29.218Z,7.9
2019-01-13T08:51:40.849Z,8
2019-01-13T08:52:55.310Z,8
2019-01-13T08:54:05.039Z,8
2019-01-13T08:55:17.351Z,8
2019-01-13T08:56:29.430Z,8
2019-01-13T08:57:41.722Z,8
2019-01-13T08:58:53.874Z,8
2019-01-13T09:01:18.281Z,8
2019-01-13T09:02:30.418Z,8
2019-01-13T09:03:42.594Z,8
2019-01-13T09:04:54.855Z,8
2019-01-13T09:06:06.985Z,8
2019-01-13T09:07:19.183Z,8.1
2019-01-13T09:08:31.400Z,8.1
2019-01-13T09:09:43.549Z,8.1
2019-01-13T09:10:55.764Z,8.1
2019-01-13T09:13:20.241Z,8.1
2019-01-13T09:14:32.368Z,8.1
2019-01-13T09:15:44.537Z,8.1
2019-01-13T09:16:56.725Z,8.1
2019-01-13T09:18:08.987Z,8.1
2019-01-13T09:19:21.187Z,8.1
2019-01-13T09:20:33.383Z,8.1
2019-01-13T09:21:45.584Z,8.1
2019-01-13T09:22:57.765Z,8.1
2019-01-13T09:25:22.163Z,8.1
2019-01-13T09:26:34.271Z,8.1
2019-01-13T09:28:58.659Z,8.2
2019-01-13T09:30:10.856Z,8.2
2019-01-13T09:31:23.130Z,8.2
2019-01-13T09:32:35.326Z,8.2
2019-01-13T09:33:47.481Z,8.2
2019-01-13T09:34:59.636Z,8.2
2019-01-13T09:37:24.084Z,8.2
2019-01-13T09:38:36.312Z,8.2
2019-01-13T09:39:50.514Z,8.2
2019-01-13T09:41:00.708Z,8.2
2019-01-13T09:42:12.786Z,8.2
2019-01-13T09:43:25.020Z,8.2
2019-01-13T09:44:37.168Z,8.2
2019-01-13T09:45:49.371Z,8.2
2019-01-13T09:47:01.563Z,8.2
2019-01-13T09:49:26.024Z,8.2
2019-01-13T09:50:38.228Z,8.2
2019-01-13T09:51:50.537Z,8.2
2019-01-13T09:53:02.619Z,8.2
2019-01-13T09:54:14.802Z,8.2
2019-01-13T09:55:27.001Z,8.2
2019-01-13T09:56:39.143Z,8.2
2019-01-13T09:57:51.316Z,8.2
2019-01-13T09:59:03.585Z,8.2
2019-01-13T10:01:27.958Z,8.3
2019-01-13T10:02:40.175Z,8.3
2019-01-13T10:03:52.281Z,8.3
2019-01-13T10:05:04.572Z,8.3
2019-01-13T10:06:16.738Z,8.3
2019-01-13T10:07:28.928Z,8.3
2019-01-13T10:08:41.132Z,8.3
2019-01-13T10:09:53.243Z,8.3
2019-01-13T10:11:05.506Z,8.3
2019-01-13T10:12:17.630Z,8.3
2019-01-13T10:13:29.907Z,8.3
2019-01-13T10:14:42.133Z,8.3
2019-01-13T10:15:54.208Z,8.3
2019-01-13T10:17:06.478Z,8.3
2019-01-13T10:18:18.824Z,8.3
2019-01-13T10:19:30.938Z,8.3
2019-01-13T10:20:42.992Z,8.3
2019-01-13T10:21:55.187Z,8.3
2019-01-13T10:23:07.378Z,8.3
2019-01-13T10:24:19.562Z,8.3
2019-01-13T10:25:31.766Z,8.3
2019-01-13T10:26:44.039Z,8.3
2019-01-13T10:27:56.234Z,8.3
2019-01-13T10:29:08.352Z,8.3
2019-01-13T10:30:20.772Z,8.3
2019-01-13T10:31:32.798Z,8.3
2019-01-13T10:32:44.930Z,8.3
2019-01-13T10:33:57.129Z,8.3
2019-01-13T10:35:09.321Z,8.3
2019-01-13T10:37:33.793Z,8.3
2019-01-13T10:38:48.653Z,8.3
2019-01-13T10:39:58.264Z,8.3
2019-01-13T10:41:10.367Z,8.3
2019-01-13T10:42:22.478Z,8.3
2019-01-13T10:43:34.690Z,8.3
2019-01-13T10:44:46.864Z,8.3
2019-01-13T10:45:59.051Z,8.3
2019-01-13T10:47:11.325Z,8.3
2019-01-13T10:48:23.524Z,8.3
2019-01-13T10:49:35.648Z,8.3
2019-01-13T10:50:47.906Z,8.4
2019-01-13T10:52:00.117Z,8.4
2019-01-13T10:53:12.301Z,8.4
2019-01-13T10:54:24.505Z,8.4
2019-01-13T10:55:36.679Z,8.4
2019-01-13T10:56:48.871Z,8.4
2019-01-13T10:58:00.995Z,8.4
2019-01-13T10:59:13.271Z,8.4
2019-01-13T11:01:37.671Z,8.4
2019-01-13T11:02:49.834Z,8.4
2019-01-13T11:04:02.053Z,8.4
2019-01-13T11:05:14.241Z,8.4
2019-01-13T11:06:26.437Z,8.4
2019-01-13T11:07:38.630Z,8.4
2019-01-13T11:08:50.848Z,8.4
2019-01-13T11:10:02.998Z,8.4
2019-01-13T11:11:15.119Z,8.4
2019-01-13T11:13:39.511Z,8.4
2019-01-13T11:14:51.812Z,8.4
2019-01-13T11:17:16.149Z,8.4
2019-01-13T11:18:28.367Z,8.4
2019-01-13T11:19:40.528Z,8.4
2019-01-13T11:20:52.830Z,8.4
2019-01-13T11:22:08.337Z,8.4
2019-01-13T11:23:17.754Z,8.4
2019-01-13T11:24:29.260Z,8.4
2019-01-13T11:25:41.544Z,8.4
2019-01-13T11:26:53.728Z,8.4
2019-01-13T11:28:05.833Z,8.4
2019-01-13T11:29:18.095Z,8.4
2019-01-13T11:30:30.346Z,8.4
2019-01-13T11:31:42.457Z,8.5
2019-01-13T11:32:54.687Z,8.5
2019-01-13T11:34:06.913Z,8.5
2019-01-13T11:35:19.012Z,8.5
2019-01-13T11:37:43.395Z,8.5
2019-01-13T11:38:55.578Z,8.5
2019-01-13T11:40:07.853Z,8.5
2019-01-13T11:41:19.972Z,8.5
2019-01-13T11:42:32.170Z,8.5
2019-01-13T11:43:44.434Z,8.5
2019-01-13T11:44:56.631Z,8.5
2019-01-13T11:46:08.744Z,8.5
2019-01-13T11:47:20.935Z,8.5
2019-01-13T11:49:45.538Z,8.5
2019-01-13T11:50:57.550Z,8.5
2019-01-13T11:52:09.787Z,8.5
2019-01-13T11:53:21.915Z,8.5
2019-01-13T11:54:34.109Z,8.5
2019-01-13T11:55:46.319Z,8.5
2019-01-13T11:56:58.563Z,8.5
2019-01-13T11:58:10.693Z,8.5
2019-01-13T11:59:22.866Z,8.5
2019-01-13T12:00:35.169Z,8.5
2019-01-13T12:01:47.335Z,8.5
2019-01-13T12:02:59.950Z,8.5
2019-01-13T12:04:11.645Z,8.5
2019-01-13T12:05:23.926Z,8.5
2019-01-13T12:06:36.117Z,8.5
2019-01-13T12:07:48.234Z,8.5
2019-01-13T12:09:00.433Z,8.5
2019-01-13T12:10:12.744Z,8.5
2019-01-13T12:11:24.811Z,8.5
2019-01-13T12:13:49.202Z,8.5
2019-01-13T12:15:01.524Z,8.5
2019-01-13T12:16:13.614Z,8.5
2019-01-13T12:17:25.778Z,8.5
2019-01-13T12:18:37.989Z,8.5
2019-01-13T12:19:50.177Z,8.5
2019-01-13T12:21:02.498Z,8.5
2019-01-13T12:22:14.603Z,8.5
2019-01-13T12:23:26.756Z,8.5
2019-01-13T12:25:51.285Z,8.5
2019-01-13T12:27:03.353Z,8.5
2019-01-13T12:28:15.654Z,8.5
2019-01-13T12:29:27.727Z,8.5
2019-01-13T12:30:40.038Z,8.5
2019-01-13T12:31:52.241Z,8.5
2019-01-13T12:33:04.374Z,8.5
2019-01-13T12:34:16.555Z,8.5
2019-01-13T12:35:28.775Z,8.5
2019-01-13T12:37:53.164Z,8.5
2019-01-13T12:39:05.287Z,8.5
2019-01-13T12:40:17.612Z,8.5
2019-01-13T12:41:29.672Z,8.5
2019-01-13T12:43:54.143Z,8.5
2019-01-13T12:45:06.327Z,8.5
2019-01-13T12:46:18.449Z,8.5
2019-01-13T12:47:30.732Z,8.5
2019-01-13T12:49:55.118Z,8.5
2019-01-13T12:51:07.307Z,8.5
2019-01-13T12:52:19.432Z,8.5
2019-01-13T12:53:31.709Z,8.5
2019-01-13T12:54:43.816Z,8.5
2019-01-13T12:55:56.105Z,8.5
2019-01-13T12:57:08.242Z,8.5
2019-01-13T12:58:20.524Z,8.5
2019-01-13T12:59:32.609Z,8.5
2019-01-13T13:01:56.991Z,8.5
2019-01-13T13:03:09.258Z,8.5
2019-01-13T13:05:33.584Z,8.5
2019-01-13T13:06:45.773Z,8.5
2019-01-13T13:07:58.002Z,8.5
2019-01-13T13:09:10.187Z,8.5
2019-01-13T13:10:22.381Z,8.5
2019-01-13T13:11:34.574Z,8.6
2019-01-13T13:13:58.968Z,8.5
2019-01-13T13:15:11.242Z,8.6
2019-01-13T13:16:23.416Z,8.5
2019-01-13T13:17:35.525Z,8.6
2019-01-13T13:18:47.809Z,8.6
2019-01-13T13:19:59.917Z,8.6
2019-01-13T13:21:12.117Z,8.6
2019-01-13T13:22:24.310Z,8.6
2019-01-13T13:23:36.589Z,8.6
2019-01-13T13:26:00.898Z,8.6
2019-01-13T13:27:13.123Z,8.6
2019-01-13T13:28:25.292Z,8.6
2019-01-13T13:29:37.575Z,8.6
2019-01-13T13:30:51.628Z,8.6
2019-01-13T13:32:01.914Z,8.6
2019-01-13T13:33:14.161Z,8.6
2019-01-13T13:34:26.280Z,8.6
2019-01-13T13:35:38.507Z,8.6
2019-01-13T13:36:50.724Z,8.6
2019-01-13T13:38:02.884Z,8.6
2019-01-13T13:39:15.044Z,8.6
2019-01-13T13:40:27.321Z,8.6
2019-01-13T13:41:39.440Z,8.6
2019-01-13T13:42:51.635Z,8.6
2019-01-13T13:44:03.824Z,8.6
2019-01-13T13:45:16.021Z,8.6
2019-01-13T13:46:28.309Z,8.6
2019-01-13T13:47:40.487Z,8.6
2019-01-13T13:50:04.884Z,8.6
2019-01-13T13:51:17.000Z,8.6
2019-01-13T13:52:29.287Z,8.6
2019-01-13T13:53:41.467Z,8.6
2019-01-13T13:54:53.592Z,8.6
2019-01-13T13:56:05.850Z,8.6
2019-01-13T13:57:18.061Z,8.6
2019-01-13T13:58:30.218Z,8.6
2019-01-13T13:59:42.360Z,8.6
2019-01-13T14:02:06.759Z,8.6
2019-01-13T14:03:19.029Z,8.6
2019-01-13T14:04:31.173Z,8.6
2019-01-13T14:05:43.335Z,8.6
2019-01-13T14:06:55.533Z,8.6
2019-01-13T14:08:08.012Z,8.6
2019-01-13T14:09:20.022Z,8.6
2019-01-13T14:10:32.175Z,8.6
2019-01-13T14:11:44.322Z,8.6
2019-01-13T14:14:08.781Z,8.6
2019-01-13T14:15:20.990Z,8.6
2019-01-13T14:16:33.182Z,8.6
2019-01-13T14:17:49.328Z,8.6
2019-01-13T14:18:58.988Z,8.6
2019-01-13T14:20:09.683Z,8.6
2019-01-13T14:21:21.950Z,8.6
2019-01-13T14:22:34.973Z,8.6
2019-01-13T14:23:46.431Z,8.6
2019-01-13T14:26:10.662Z,8.6
2019-01-13T14:27:22.941Z,8.6
2019-01-13T14:28:35.049Z,8.6
2019-01-13T14:29:49.011Z,8.6
2019-01-13T14:30:59.503Z,8.6
2019-01-13T14:32:11.671Z,8.6
2019-01-13T14:33:23.823Z,8.6
2019-01-13T14:34:36.022Z,8.6
2019-01-13T14:35:48.215Z,8.6
2019-01-13T14:37:00.479Z,8.6
2019-01-13T14:38:12.679Z,8.6
2019-01-13T14:39:24.881Z,8.6
2019-01-13T14:40:37.017Z,8.6
2019-01-13T14:41:49.263Z,8.6
2019-01-13T14:43:01.391Z,8.6
2019-01-13T14:44:13.658Z,8.6
2019-01-13T14:45:25.817Z,8.6
2019-01-13T14:46:38.048Z,8.6
2019-01-13T14:47:50.191Z,8.6
2019-01-13T14:50:14.660Z,8.6
2019-01-13T14:51:26.825Z,8.6
2019-01-13T14:52:39.122Z,8.6
2019-01-13T14:53:51.147Z,8.6
2019-01-13T14:55:03.413Z,8.6
2019-01-13T14:56:15.626Z,8.6
2019-01-13T14:57:27.749Z,8.6
2019-01-13T14:58:39.931Z,8.6
2019-01-13T14:59:52.247Z,8.6
2019-01-13T15:02:16.529Z,8.6
2019-01-13T15:03:28.790Z,8.6
2019-01-13T15:04:41.132Z,8.6
2019-01-13T15:05:53.107Z,8.6
2019-01-13T15:07:05.347Z,8.6
2019-01-13T15:08:17.494Z,8.6
2019-01-13T15:09:29.687Z,8.6
2019-01-13T15:10:41.882Z,8.6
2019-01-13T15:11:54.151Z,8.6
2019-01-13T15:13:06.283Z,8.6
2019-01-13T15:14:18.563Z,8.6
2019-01-13T15:15:30.732Z,8.6
2019-01-13T15:16:42.861Z,8.6
2019-01-13T15:17:55.119Z,8.6
2019-01-13T15:19:07.316Z,8.6
2019-01-13T15:20:19.482Z,8.6
2019-01-13T15:21:31.709Z,8.6
2019-01-13T15:22:43.830Z,8.6
2019-01-13T15:23:56.244Z,8.6
2019-01-13T15:26:20.509Z,8.6
2019-01-13T15:27:32.622Z,8.6
2019-01-13T15:28:44.888Z,8.6
2019-01-13T15:29:57.080Z,8.6
2019-01-13T15:31:09.278Z,8.6
2019-01-13T15:32:21.464Z,8.6
2019-01-13T15:33:33.718Z,8.6
2019-01-13T15:34:45.891Z,8.6
2019-01-13T15:35:57.990Z,8.6
2019-01-13T15:38:22.375Z,8.5
2019-01-13T15:39:34.587Z,8.6
2019-01-13T15:40:46.770Z,8.6
2019-01-13T15:41:59.064Z,8.6
2019-01-13T15:43:11.155Z,8.6
2019-01-13T15:44:23.447Z,8.6
2019-01-13T15:45:35.558Z,8.6
2019-01-13T15:46:47.741Z,8.5
2019-01-13T15:48:00.098Z,8.5
2019-01-13T15:49:12.206Z,8.5
2019-01-13T15:50:24.332Z,8.5
2019-01-13T15:51:36.527Z,8.5
2019-01-13T15:52:48.829Z,8.5
2019-01-13T15:54:00.916Z,8.5
2019-01-13T15:55:13.106Z,8.5
2019-01-13T15:56:25.301Z,8.5
2019-01-13T15:57:37.580Z,8.5
2019-01-13T15:58:49.703Z,8.5
2019-01-13T16:00:01.888Z,8.5
2019-01-13T16:02:26.352Z,8.5
2019-01-13T16:03:38.473Z,8.5
2019-01-13T16:04:50.728Z,8.5
2019-01-13T16:06:02.878Z,8.5
2019-01-13T16:07:15.077Z,8.5
2019-01-13T16:08:27.490Z,8.5
2019-01-13T16:09:39.659Z,8.5
2019-01-13T16:10:55.003Z,8.5
2019-01-13T16:12:03.844Z,8.5
2019-01-13T16:13:16.072Z,8.5
2019-01-13T16:14:28.229Z,8.5
2019-01-13T16:15:40.469Z,8.5
2019-01-13T16:16:52.636Z,8.5
2019-01-13T16:18:04.893Z,8.5
2019-01-13T16:19:17.098Z,8.5
2019-01-13T16:20:29.220Z,8.5
2019-01-13T16:21:41.406Z,8.5
2019-01-13T16:22:53.599Z,8.5
2019-01-13T16:24:05.802Z,8.5
2019-01-13T16:26:30.213Z,8.5
2019-01-13T16:27:42.837Z,8.5
2019-01-13T16:28:57.804Z,8.5
2019-01-13T16:30:06.851Z,8.5
2019-01-13T16:31:18.970Z,8.5
2019-01-13T16:32:31.308Z,8.5
2019-01-13T16:33:43.363Z,8.5
2019-01-13T16:34:55.636Z,8.5
2019-01-13T16:36:07.870Z,8.5
2019-01-13T16:37:19.947Z,8.5
2019-01-13T16:38:32.228Z,8.5
2019-01-13T16:39:44.421Z,8.5
2019-01-13T16:40:56.539Z,8.5
2019-01-13T16:42:08.720Z,8.5
2019-01-13T16:43:20.991Z,8.5
2019-01-13T16:44:33.117Z,8.5
2019-01-13T16:46:57.607Z,8.5
2019-01-13T16:48:09.726Z,8.4
2019-01-13T16:50:34.094Z,8.5
2019-01-13T16:51:46.384Z,8.4
2019-01-13T16:52:58.495Z,8.4
2019-01-13T16:54:10.685Z,8.4
2019-01-13T16:55:23.072Z,8.4
2019-01-13T16:56:35.172Z,8.4
2019-01-13T16:57:47.401Z,8.4
2019-01-13T16:58:59.477Z,8.4
2019-01-13T17:00:11.678Z,8.4
2019-01-13T17:02:36.118Z,8.4
2019-01-13T17:03:48.317Z,8.4
2019-01-13T17:05:00.509Z,8.4
2019-01-13T17:06:12.633Z,8.4
2019-01-13T17:07:24.916Z,8.4
2019-01-13T17:08:37.046Z,8.4
2019-01-13T17:09:49.290Z,8.4
2019-01-13T17:11:01.512Z,8.4
2019-01-13T17:12:13.643Z,8.4
2019-01-13T17:14:38.011Z,8.4
2019-01-13T17:15:50.195Z,8.4
2019-01-13T17:17:02.478Z,8.4
2019-01-13T17:18:14.675Z,8.4
2019-01-13T17:19:26.794Z,8.4
2019-01-13T17:20:39.054Z,8.4
2019-01-13T17:21:51.213Z,8.4
2019-01-13T17:23:03.440Z,8.4
2019-01-13T17:24:15.592Z,8.4
2019-01-13T17:26:39.979Z,8.4
2019-01-13T17:27:52.160Z,8.4
2019-01-13T17:29:06.791Z,8.3
2019-01-13T17:30:16.677Z,8.4
2019-01-13T17:31:28.743Z,8.4
2019-01-13T17:32:41.039Z,8.3
2019-01-13T17:33:53.223Z,8.3
2019-01-13T17:35:05.406Z,8.3
2019-01-13T17:36:17.549Z,8.3
2019-01-13T17:38:41.924Z,8.3
2019-01-13T17:39:54.203Z,8.3
2019-01-13T17:41:06.306Z,8.3
2019-01-13T17:42:18.616Z,8.3
2019-01-13T17:43:30.730Z,8.3
2019-01-13T17:44:43.059Z,8.3
2019-01-13T17:45:55.093Z,8.3
2019-01-13T17:47:07.377Z,8.3
2019-01-13T17:48:19.488Z,8.3
2019-01-13T17:50:43.955Z,8.3
2019-01-13T17:51:56.069Z,8.3
2019-01-13T17:53:08.344Z,8.3
2019-01-13T17:54:20.457Z,8.3
2019-01-13T17:55:32.690Z,8.3
2019-01-13T17:56:44.850Z,8.3
2019-01-13T17:57:57.067Z,8.3
2019-01-13T17:59:09.241Z,8.3
2019-01-13T18:00:21.518Z,8.3
2019-01-13T18:02:45.826Z,8.3
2019-01-13T18:03:58.018Z,8.3
2019-01-13T18:05:10.228Z,8.3
2019-01-13T18:06:22.492Z,8.3
2019-01-13T18:07:35.934Z,8.3
2019-01-13T18:08:46.829Z,8.3
2019-01-13T18:09:59.004Z,8.3
2019-01-13T18:11:11.275Z,8.3
2019-01-13T18:12:23.482Z,8.3
2019-01-13T18:14:47.856Z,8.3
2019-01-13T18:16:00.182Z,8.3
2019-01-13T18:17:12.180Z,8.2
2019-01-13T18:18:24.490Z,8.2